Pagrindinis puslapis
METAR-TAF:

METAR-TAF

Oro uostai :

Mykonos, Graikija

platuma: 37-26-09N, ilguma: 025-20-45E, Aukštis: 123 m

Dabartinis oras

Ataskaita buvo paskelbta 34 minutes, ne 11:50 UTC
Temperatūra 21°C
Drėgmė 49%
Slėgis 1011 hPa
Matomumas 10 km arba daugiau
Mažai debesys ne aukštis 1600 ft

METAR: LGMK 281150Z /////KT 9999 FEW016 21/10 Q1011

Laikas: 14:24 (12:24 UTC)

Prognozė

Ataskaita buvo paskelbta 1 valandą ir 24 minutes, ne 11:00 UTC
Prognozė galioja nuo 28 metu 12 UTC su 28 metu 21 UTC
Vėjas 21 kt iš Pietų/Pietvakarių
Matomumas 10 km arba daugiau
Mažai debesys ne aukštis 1600 ft
Tapsmas
nuo 28 metu 15 UTC su 28 metu 17 UTC
Vėjas 22 kt iš Pietų/Pietryčių su gūsio iki 32 kt

TAF: LGMK 281100Z 2812/2821 21021KT 9999 FEW016 BECMG 2815/2817 16022G32KT

Orai ataskaitas ir orų prognozės (METAR, TAF).

turimą stotys yra geltonos ir raudonos taškus žemėlapyje.

Perkelti pele per norėdami pamatyti stoties vardą.

Tada spustelėkite, norėdami matyti oro stebėjimo ir prognozės.

Norėdami pakeisti žemėlapį: spustelėkite ant žalios mygtukų su juodo kryžiaus žemyn,; žalią mygtuką su brūkšneliu, jei norite nutolinti; arba žalių rodyklių gretimoms žemėlapius.


METAR-TAF: